Time;durP1;ratioP1;P1;durP2;ratioP2;P2;SDS_P1;SDS_P2;PMS_P1;PMS_P2;Temp;Humidity;BMP_temperature;BMP_pressure;BME280_temperature;BME280_humidity;BME280_pressure;Samples;Min_cycle;Max_cycle;Signal;HPM_P1;HPM_P2
2022/07/10 00:00:27;;;;;;;5.38;3.35;;;22.40;99.90;;;;;;4920316;29;20090;-90
2022/07/10 00:02:54;;;;;;;8.40;3.53;;;22.50;99.90;;;;;;4921120;29;20102;-91
2022/07/10 00:05:22;;;;;;;5.35;3.28;;;22.50;99.90;;;;;;4904632;29;20098;-90
2022/07/10 00:07:50;;;;;;;5.03;3.25;;;22.50;99.90;;;;;;4920322;29;20035;-91
2022/07/10 00:10:21;;;;;;;6.43;3.25;;;22.40;99.90;;;;;;4904616;29;20032;-89
2022/07/10 00:12:50;;;;;;;5.05;3.22;;;22.40;99.90;;;;;;4904364;29;20126;-90
2022/07/10 00:15:18;;;;;;;6.85;3.50;;;22.40;99.90;;;;;;4920198;29;20055;-90
2022/07/10 00:17:45;;;;;;;6.65;3.30;;;22.30;99.90;;;;;;4904410;29;20090;-90
2022/07/10 00:20:13;;;;;;;3.83;3.05;;;22.40;99.90;;;;;;4920022;29;20042;-89
2022/07/10 00:22:41;;;;;;;9.07;3.78;;;22.40;99.90;;;;;;4904753;29;20094;-89
2022/07/10 00:25:12;;;;;;;5.78;3.15;;;22.30;99.90;;;;;;4920232;29;20107;-89
2022/07/10 00:27:39;;;;;;;5.05;3.30;;;22.30;99.90;;;;;;4919923;29;20031;-91
2022/07/10 00:30:07;;;;;;;8.25;3.50;;;22.20;99.90;;;;;;4904308;29;20473;-89
2022/07/10 00:32:34;;;;;;;6.35;3.10;;;22.20;99.90;;;;;;4919857;29;20031;-89
2022/07/10 00:35:01;;;;;;;6.00;3.33;;;22.20;99.90;;;;;;4904161;29;20024;-89
2022/07/10 00:37:29;;;;;;;7.53;3.60;;;22.10;99.90;;;;;;4904109;29;20036;-89
2022/07/10 00:39:56;;;;;;;4.13;3.30;;;22.10;99.90;;;;;;4903951;29;20028;-89
2022/07/10 00:42:22;;;;;;;5.88;3.90;;;22.10;99.90;;;;;;4919911;29;20090;-89
2022/07/10 00:44:49;;;;;;;4.90;3.40;;;22.00;99.90;;;;;;4904239;29;20119;-90
2022/07/10 00:47:19;;;;;;;6.05;3.30;;;22.00;99.90;;;;;;4904189;29;20454;-89
2022/07/10 00:49:49;;;;;;;7.70;3.55;;;22.00;99.90;;;;;;4904166;29;20114;-91
2022/07/10 00:52:18;;;;;;;7.28;4.20;;;21.90;99.90;;;;;;4903919;29;20078;-90
2022/07/10 00:54:50;;;;;;;6.00;3.78;;;21.90;99.90;;;;;;4904091;29;20031;-90
2022/07/10 00:57:18;;;;;;;5.10;3.92;;;21.80;99.90;;;;;;4920284;29;20161;-89
2022/07/10 00:59:46;;;;;;;5.40;3.83;;;21.80;99.90;;;;;;4904202;29;20504;-90
2022/07/10 01:02:14;;;;;;;7.80;3.97;;;21.80;99.90;;;;;;4919758;29;20050;-90
2022/07/10 01:04:41;;;;;;;7.13;3.95;;;21.80;99.90;;;;;;4904177;29;20032;-89
2022/07/10 01:07:07;;;;;;;5.35;3.72;;;21.70;99.90;;;;;;4919620;29;20112;-90
2022/07/10 01:09:37;;;;;;;10.90;4.05;;;21.70;99.90;;;;;;4904178;29;20036;-90
2022/07/10 01:12:05;;;;;;;3.97;3.50;;;21.70;99.90;;;;;;4919709;29;20043;-91
2022/07/10 01:14:32;;;;;;;6.45;4.05;;;21.70;99.90;;;;;;4919746;29;20030;-89
2022/07/10 01:17:01;;;;;;;9.80;4.07;;;21.70;99.90;;;;;;4919707;29;20032;-89
2022/07/10 01:19:28;;;;;;;5.47;3.50;;;21.70;99.90;;;;;;4919780;29;20036;-91
2022/07/10 01:21:54;;;;;;;8.60;3.92;;;21.70;99.90;;;;;;4919777;29;20044;-89
2022/07/10 01:24:21;;;;;;;4.00;3.60;;;21.70;99.90;;;;;;4935236;29;20036;-90
2022/07/10 01:26:48;;;;;;;4.85;3.47;;;21.60;99.90;;;;;;4919587;29;20024;-91
2022/07/10 01:29:15;;;;;;;7.70;3.80;;;21.70;99.90;;;;;;4919592;29;20401;-90
2022/07/10 01:31:41;;;;;;;5.40;3.63;;;21.70;99.90;;;;;;4919648;29;20031;-88
2022/07/10 01:34:09;;;;;;;5.32;3.47;;;21.60;99.90;;;;;;4919421;29;20055;-89
2022/07/10 01:36:37;;;;;;;4.70;3.40;;;21.60;99.90;;;;;;4919398;29;20107;-89
2022/07/10 01:39:05;;;;;;;4.40;3.50;;;21.50;99.90;;;;;;4919728;29;20209;-90
2022/07/10 01:41:32;;;;;;;10.05;3.75;;;21.50;99.90;;;;;;4919500;29;20066;-89
2022/07/10 01:43:58;;;;;;;5.68;3.83;;;21.50;99.90;;;;;;4919396;29;20038;-90
2022/07/10 01:46:25;;;;;;;6.38;3.85;;;21.50;99.90;;;;;;4919469;29;20056;-90
2022/07/10 01:48:53;;;;;;;6.10;4.00;;;21.60;99.90;;;;;;4905881;29;20511;-89
2022/07/10 01:51:20;;;;;;;6.05;3.35;;;21.50;99.90;;;;;;4923035;29;20024;-89
2022/07/10 01:53:47;;;;;;;4.50;3.10;;;21.50;99.90;;;;;;4922955;29;20083;-91
2022/07/10 01:56:16;;;;;;;5.15;3.67;;;21.50;99.90;;;;;;4922949;29;20035;-90
2022/07/10 01:58:42;;;;;;;6.70;3.50;;;21.40;99.90;;;;;;4922809;29;20055;-90
2022/07/10 02:01:10;;;;;;;4.47;3.30;;;21.40;99.90;;;;;;4922835;29;20039;-90
2022/07/10 02:06:22;;;;;;;4.28;3.08;;;21.40;99.90;;;;;;4922592;29;20532;-89
2022/07/10 02:08:49;;;;;;;5.40;3.63;;;21.40;99.90;;;;;;4922524;29;20031;-90
2022/07/10 02:11:16;;;;;;;4.53;3.30;;;21.50;99.90;;;;;;4922479;29;20035;-90
2022/07/10 02:13:42;;;;;;;6.53;3.80;;;21.50;99.90;;;;;;4922557;29;20106;-90
2022/07/10 02:16:10;;;;;;;5.85;3.50;;;21.50;99.90;;;;;;4922412;29;20441;-89
2022/07/10 02:18:38;;;;;;;3.58;3.22;;;21.50;99.90;;;;;;4922408;29;20035;-89
2022/07/10 02:21:05;;;;;;;6.55;3.58;;;21.60;99.90;;;;;;4922185;29;20051;-90
2022/07/10 02:23:32;;;;;;;6.68;3.72;;;21.50;99.90;;;;;;4922406;29;20028;-90
2022/07/10 02:25:58;;;;;;;3.90;3.47;;;21.50;99.90;;;;;;4922168;29;20035;-90
2022/07/10 02:28:25;;;;;;;8.27;4.32;;;21.60;99.90;;;;;;4921977;29;20082;-91
2022/07/10 02:30:52;;;;;;;4.30;3.38;;;21.50;99.90;;;;;;4921952;29;20028;-90
2022/07/10 02:33:18;;;;;;;8.20;3.72;;;21.50;99.90;;;;;;4921999;29;20114;-91
2022/07/10 02:35:45;;;;;;;6.35;3.50;;;21.50;99.90;;;;;;4921897;29;20031;-93
2022/07/10 02:38:11;;;;;;;3.78;3.40;;;21.50;99.90;;;;;;4937895;29;20024;-91
2022/07/10 02:40:40;;;;;;;6.53;3.80;;;21.40;99.90;;;;;;4906605;29;20043;-91
2022/07/10 02:43:07;;;;;;;5.43;3.50;;;21.50;99.90;;;;;;4921842;29;20114;-90
2022/07/10 02:45:34;;;;;;;5.97;3.70;;;21.50;99.90;;;;;;4921907;29;20032;-90
2022/07/10 02:48:00;;;;;;;6.25;3.72;;;21.40;99.90;;;;;;4921947;29;20028;-90
2022/07/10 02:50:27;;;;;;;6.07;3.42;;;21.50;99.90;;;;;;4922440;29;20051;-91
2022/07/10 02:52:53;;;;;;;7.07;4.43;;;21.50;99.90;;;;;;4921726;29;20036;-90
2022/07/10 02:55:20;;;;;;;6.65;3.92;;;21.50;99.90;;;;;;4921648;29;20059;-93
2022/07/10 02:57:46;;;;;;;5.97;3.72;;;21.50;99.90;;;;;;4924353;29;20028;-92
2022/07/10 03:00:16;;;;;;;5.78;4.05;;;21.50;99.90;;;;;;4922222;29;20028;-91
2022/07/10 03:02:42;;;;;;;4.10;3.70;;;21.40;99.90;;;;;;4921717;29;20055;-92
2022/07/10 03:05:09;;;;;;;5.70;4.10;;;21.40;99.90;;;;;;4905869;29;20058;-92
2022/07/10 03:07:36;;;;;;;11.18;4.03;;;21.40;99.90;;;;;;4906014;29;20032;-92
2022/07/10 03:10:03;;;;;;;5.15;4.22;;;21.40;99.90;;;;;;4906144;29;20512;-93
2022/07/10 03:12:48;;;;;;;5.80;4.22;;;21.20;99.90;;;;;;4906027;29;20032;-91
2022/07/10 03:15:15;;;;;;;10.30;4.53;;;21.00;99.90;;;;;;4906061;29;20031;-95
2022/07/10 03:17:42;;;;;;;8.48;4.65;;;20.80;99.90;;;;;;4905764;29;20082;-91
2022/07/10 03:20:10;;;;;;;8.65;4.80;;;20.70;99.90;;;;;;4921399;29;20028;-92
2022/07/10 03:22:37;;;;;;;8.50;4.50;;;20.60;99.90;;;;;;4905065;29;20036;-92
2022/07/10 03:25:04;;;;;;;7.38;4.88;;;20.50;99.90;;;;;;4905605;29;20028;-91
2022/07/10 03:27:31;;;;;;;8.38;4.82;;;20.50;99.90;;;;;;4905501;29;20063;-91
2022/07/10 03:29:57;;;;;;;5.53;4.85;;;20.40;99.90;;;;;;4905377;29;20027;-92
2022/07/10 03:32:24;;;;;;;12.35;5.30;;;20.30;99.90;;;;;;4905456;29;20204;-92
2022/07/10 03:34:50;;;;;;;10.10;5.07;;;20.30;99.90;;;;;;4905422;29;20038;-90
2022/07/10 03:37:17;;;;;;;7.03;5.00;;;20.30;99.90;;;;;;4905742;29;20032;-91
2022/07/10 03:39:43;;;;;;;11.82;5.30;;;20.20;99.90;;;;;;4905779;29;20083;-92
2022/07/10 03:42:10;;;;;;;9.98;5.65;;;20.20;99.90;;;;;;4920864;29;20070;-90
2022/07/10 03:44:36;;;;;;;8.63;5.03;;;20.20;99.90;;;;;;4905032;29;20028;-93
2022/07/10 03:47:03;;;;;;;8.57;5.40;;;20.20;99.90;;;;;;4905137;29;20031;-91
2022/07/10 03:49:30;;;;;;;9.23;5.63;;;20.20;99.90;;;;;;4905002;29;20032;-92
2022/07/10 03:52:00;;;;;;;6.50;4.93;;;20.20;99.90;;;;;;4904978;29;20568;-93
2022/07/10 03:54:29;;;;;;;9.77;5.40;;;20.20;99.90;;;;;;4905182;29;20032;-91
2022/07/10 03:59:47;;;;;;;9.20;5.25;;;20.30;99.90;;;;;;4936462;29;20032;-91
2022/07/10 04:02:14;;;;;;;8.73;4.97;;;20.50;99.90;;;;;;4904903;29;20040;-91
2022/07/10 04:04:41;;;;;;;7.10;5.10;;;20.50;99.90;;;;;;4920680;29;20118;-92
2022/07/10 04:07:07;;;;;;;7.57;5.28;;;20.60;99.90;;;;;;4905371;29;20051;-92
2022/07/10 04:09:34;;;;;;;7.75;5.18;;;20.70;99.90;;;;;;4906067;29;20031;-93
2022/07/10 04:12:00;;;;;;;7.20;4.72;;;20.80;99.90;;;;;;4924183;29;20027;-92
2022/07/10 04:14:27;;;;;;;7.15;4.95;;;20.80;99.90;;;;;;4907683;29;20027;-93
2022/07/10 04:16:53;;;;;;;6.03;5.22;;;20.90;99.90;;;;;;4907812;29;20037;-93
2022/07/10 04:19:26;;;;;;;6.63;5.05;;;20.90;99.90;;;;;;4925266;29;20039;-93
2022/07/10 04:21:53;;;;;;;7.40;5.22;;;20.90;99.90;;;;;;4916949;29;20091;-93
2022/07/10 04:24:19;;;;;;;8.68;5.25;;;21.00;99.90;;;;;;4912695;29;20593;-91
2022/07/10 04:26:46;;;;;;;9.32;5.47;;;21.00;99.90;;;;;;4907643;29;20031;-94
2022/07/10 04:29:12;;;;;;;7.78;4.82;;;21.10;99.90;;;;;;4906457;29;20019;-92
2022/07/10 04:31:39;;;;;;;7.30;5.15;;;21.10;99.90;;;;;;4922336;29;20045;-93
2022/07/10 04:34:07;;;;;;;6.57;4.97;;;21.20;99.90;;;;;;4883685;29;20073;-91
2022/07/10 04:36:34;;;;;;;8.80;5.70;;;21.30;99.90;;;;;;4883558;29;20052;-92
2022/07/10 04:39:00;;;;;;;7.30;5.22;;;21.40;99.90;;;;;;4882387;29;20032;-92
2022/07/10 04:41:27;;;;;;;7.82;5.38;;;21.70;99.90;;;;;;4882164;29;20192;-91
2022/07/10 04:43:54;;;;;;;6.80;4.80;;;22.30;99.90;;;;;;4866888;29;20033;-93
2022/07/10 04:46:20;;;;;;;6.28;4.68;;;23.60;99.90;;;;;;4867199;29;20037;-91
2022/07/10 04:48:47;;;;;;;6.53;5.03;;;25.10;99.90;;;;;;4870094;29;20044;-90
2022/07/10 04:51:14;;;;;;;6.10;4.90;;;26.70;99.90;;;;;;4872168;29;20037;-93
2022/07/10 04:53:41;;;;;;;7.05;4.93;;;27.70;99.90;;;;;;4873010;29;20036;-93
2022/07/10 04:56:08;;;;;;;5.45;4.95;;;28.40;99.90;;;;;;4890759;29;20032;-91
2022/07/10 04:58:35;;;;;;;8.70;5.68;;;28.80;99.90;;;;;;4877905;29;20104;-94
2022/07/10 05:01:39;;;;;;;6.07;5.25;;;28.80;99.90;;;;;;4891641;29;20039;-91
2022/07/10 05:04:05;;;;;;;7.75;5.50;;;29.60;99.90;;;;;;4899634;29;20068;-91
2022/07/10 05:06:32;;;;;;;5.75;5.07;;;30.50;99.90;;;;;;4914233;29;20083;-91
2022/07/10 05:09:03;;;;;;;6.00;5.00;;;30.50;99.90;;;;;;4911705;29;20032;-94
2022/07/10 05:11:31;;;;;;;7.50;5.60;;;30.50;99.90;;;;;;4911363;29;20051;-92
2022/07/10 05:13:58;;;;;;;6.95;6.30;;;30.40;99.90;;;;;;4914279;29;20050;-91
2022/07/10 05:16:25;;;;;;;7.85;7.10;;;30.40;99.90;;;;;;4932396;29;20040;-92
2022/07/10 05:19:04;;;;;;;7.50;7.00;;;30.80;99.90;;;;;;4907370;29;20034;-92
2022/07/10 05:21:34;;;;;;;6.60;6.10;;;31.40;99.90;;;;;;4922642;29;20171;-92
2022/07/10 05:24:01;;;;;;;7.63;5.50;;;31.70;99.90;;;;;;4911366;29;20102;-91
2022/07/10 05:26:27;;;;;;;6.90;5.60;;;31.10;99.90;;;;;;4926415;29;20043;-92
2022/07/10 05:28:54;;;;;;;6.63;6.07;;;31.10;99.90;;;;;;4909370;29;20028;-93
2022/07/10 05:31:20;;;;;;;7.05;5.95;;;30.60;99.90;;;;;;4907726;29;20047;-93
2022/07/10 05:33:47;;;;;;;9.07;6.65;;;31.00;99.90;;;;;;4908046;29;20062;-92
2022/07/10 05:36:14;;;;;;;6.30;5.80;;;30.80;99.90;;;;;;4907772;29;20039;-92
2022/07/10 05:38:40;;;;;;;6.45;5.93;;;30.70;99.90;;;;;;4907612;29;20045;-91
2022/07/10 05:41:07;;;;;;;6.72;5.97;;;30.90;99.90;;;;;;4907291;29;20040;-94
2022/07/10 05:43:33;;;;;;;6.68;5.90;;;30.50;99.90;;;;;;4907248;29;20024;-94
2022/07/10 05:46:00;;;;;;;5.47;5.00;;;30.40;99.90;;;;;;4907230;29;20040;-93
2022/07/10 05:48:26;;;;;;;6.05;5.55;;;30.20;99.90;;;;;;4907397;29;20087;-93
2022/07/10 05:50:53;;;;;;;6.10;5.50;;;30.10;99.90;;;;;;4922701;29;20095;-93
2022/07/10 05:53:20;;;;;;;5.90;5.43;;;29.70;99.90;;;;;;4907121;29;20091;-92
2022/07/10 05:55:48;;;;;;;5.93;5.32;;;30.00;99.90;;;;;;4922969;29;20067;-94
2022/07/10 05:58:15;;;;;;;7.00;6.30;;;29.80;99.90;;;;;;4907073;29;20035;-93
2022/07/10 06:00:45;;;;;;;6.75;6.03;;;29.70;99.90;;;;;;4922686;29;20078;-92
2022/07/10 06:03:12;;;;;;;8.88;6.35;;;30.10;99.90;;;;;;4906986;29;20409;-93
2022/07/10 06:05:39;;;;;;;5.82;5.30;;;30.60;99.90;;;;;;4906813;29;20063;-93
2022/07/10 06:08:05;;;;;;;6.40;6.00;;;30.60;99.90;;;;;;4907736;29;20481;-95
2022/07/10 06:10:32;;;;;;;7.20;6.70;;;29.90;99.90;;;;;;4907260;29;20090;-94
2022/07/10 06:12:59;;;;;;;7.35;6.63;;;29.60;99.90;;;;;;4907362;29;20422;-94
2022/07/10 06:15:25;;;;;;;7.68;7.03;;;29.30;99.90;;;;;;4906548;29;20122;-95
2022/07/10 06:18:29;;;;;;;7.13;6.50;;;29.30;99.90;;;;;;4906750;29;20028;-94
2022/07/10 06:20:59;;;;;;;8.70;6.05;;;29.50;99.90;;;;;;4906908;29;20047;-92
2022/07/10 06:23:25;;;;;;;8.90;6.68;;;29.30;99.90;;;;;;4906923;29;20110;-93
2022/07/10 06:25:52;;;;;;;6.13;5.63;;;28.80;99.90;;;;;;4906612;29;20469;-93
2022/07/10 06:28:19;;;;;;;7.25;5.82;;;28.50;99.90;;;;;;4906689;29;20160;-92
2022/07/10 06:30:47;;;;;;;7.47;6.82;;;28.70;99.90;;;;;;4904705;29;20564;-93
2022/07/10 06:33:19;;;;;;;7.07;6.47;;;29.10;99.90;;;;;;4906393;29;20024;-92
2022/07/10 06:35:47;;;;;;;7.65;6.93;;;28.90;99.90;;;;;;4906421;29;20036;-93
2022/07/10 06:38:13;;;;;;;7.68;6.95;;;29.20;99.90;;;;;;4906325;29;20028;-94
2022/07/10 06:40:42;;;;;;;8.77;7.88;;;29.50;99.90;;;;;;4906359;29;20063;-93
2022/07/10 06:43:09;;;;;;;9.50;8.90;;;29.60;99.90;;;;;;4906350;29;20024;-92
2022/07/10 06:45:39;;;;;;;8.35;7.80;;;29.60;99.90;;;;;;4906741;29;20508;-92
2022/07/10 06:48:06;;;;;;;10.15;7.35;;;29.50;99.90;;;;;;4907259;29;20036;-93
2022/07/10 06:50:34;;;;;;;7.38;6.88;;;29.90;99.90;;;;;;4906668;29;20032;-91
2022/07/10 06:53:02;;;;;;;8.43;7.78;;;29.40;99.90;;;;;;4906136;29;20052;-91
2022/07/10 06:55:31;;;;;;;7.53;7.03;;;28.80;99.90;;;;;;4906326;29;20090;-91
2022/07/10 06:57:59;;;;;;;8.70;8.10;;;28.80;99.90;;;;;;4905962;29;20090;-92
2022/07/10 07:01:13;;;;;;;8.65;7.90;;;29.00;99.90;;;;;;4894271;29;20053;-93
2022/07/10 07:03:41;;;;;;;9.10;8.20;;;28.60;99.90;;;;;;4907933;29;20050;-91
2022/07/10 07:06:10;;;;;;;9.18;8.45;;;29.30;99.90;;;;;;4913267;29;20083;-92
2022/07/10 07:08:37;;;;;;;8.55;7.95;;;29.40;99.90;;;;;;4909253;29;20440;-93
2022/07/10 07:11:03;;;;;;;8.07;7.55;;;29.40;99.90;;;;;;4907072;29;20067;-92
2022/07/10 07:13:36;;;;;;;8.93;6.57;;;29.50;99.90;;;;;;4905772;29;20027;-92
2022/07/10 07:18:35;;;;;;;9.43;8.57;;;29.70;99.90;;;;;;4986232;23;20055;-90
2022/07/10 07:24:08;;;;;;;9.53;8.73;;;29.50;99.90;;;;;;4949905;23;20066;-91
2022/07/10 07:26:36;;;;;;;9.32;8.63;;;29.80;99.90;;;;;;4925375;29;20279;-92
2022/07/10 07:29:03;;;;;;;8.52;8.02;;;29.30;99.90;;;;;;4924651;29;20027;-92
2022/07/10 07:31:30;;;;;;;9.20;8.60;;;29.00;99.90;;;;;;4931543;29;20051;-92
2022/07/10 07:33:57;;;;;;;9.00;8.50;;;29.10;99.90;;;;;;4934020;28;20089;-93
2022/07/10 07:36:24;;;;;;;9.13;8.25;;;29.90;99.90;;;;;;4930022;28;20042;-91
2022/07/10 07:38:53;;;;;;;8.15;7.50;;;29.50;99.90;;;;;;4928259;29;20053;-93
2022/07/10 07:41:20;;;;;;;8.75;8.15;;;29.50;99.90;;;;;;4948133;28;20039;-92
2022/07/10 07:43:46;;;;;;;8.63;8.13;;;29.20;99.90;;;;;;4931587;28;20027;-92
2022/07/10 07:46:13;;;;;;;10.50;9.70;;;29.10;99.90;;;;;;4932318;28;20058;-93
2022/07/10 07:48:40;;;;;;;9.60;8.80;;;29.50;99.90;;;;;;4933355;28;20031;-91
2022/07/10 07:51:06;;;;;;;8.50;7.80;;;29.80;99.90;;;;;;4949027;28;20028;-92
2022/07/10 07:53:33;;;;;;;7.97;7.47;;;29.50;99.90;;;;;;4934002;28;20034;-92
2022/07/10 07:56:02;;;;;;;8.95;8.10;;;29.50;99.90;;;;;;4931853;28;20026;-91
2022/07/10 07:58:29;;;;;;;8.77;8.18;;;29.70;99.90;;;;;;4933135;28;20019;-91
2022/07/10 08:00:58;;;;;;;9.40;8.60;;;29.80;99.90;;;;;;4933007;28;20023;-90
2022/07/10 08:03:25;;;;;;;7.90;7.30;;;29.50;99.90;;;;;;4929721;28;20032;-92
2022/07/10 08:05:54;;;;;;;6.60;6.20;;;29.50;99.90;;;;;;4927887;28;20027;-92
2022/07/10 08:08:21;;;;;;;6.05;5.60;;;28.60;99.90;;;;;;4948198;28;20063;-91
2022/07/10 08:10:51;;;;;;;7.43;6.82;;;28.10;99.90;;;;;;4939522;28;20509;-92
2022/07/10 08:13:18;;;;;;;8.40;7.70;;;28.30;99.90;;;;;;4943892;28;20034;-93
2022/07/10 08:15:44;;;;;;;8.80;8.18;;;29.30;99.90;;;;;;4942951;28;20130;-94
2022/07/10 08:18:11;;;;;;;8.73;8.02;;;29.90;99.90;;;;;;4942832;28;20026;-93
2022/07/10 08:20:38;;;;;;;9.73;8.93;;;29.70;99.90;;;;;;4943125;28;20138;-93
2022/07/10 08:23:05;;;;;;;9.85;9.15;;;29.70;99.90;;;;;;4948825;28;20073;-91
2022/07/10 08:25:32;;;;;;;9.75;8.95;;;29.80;99.90;;;;;;4977999;28;20030;-92
2022/07/10 08:28:11;;;;;;;11.57;10.57;;;29.60;99.90;;;;;;4961755;28;20045;-91
2022/07/10 08:30:38;;;;;;;9.27;8.65;;;29.40;99.90;;;;;;4961672;28;20035;-92
2022/07/10 08:33:05;;;;;;;9.30;8.50;;;29.00;99.90;;;;;;4979138;28;20038;-92
2022/07/10 08:35:33;;;;;;;9.02;8.30;;;29.10;99.90;;;;;;4962933;28;20023;-92
2022/07/10 08:37:59;;;;;;;8.30;7.55;;;29.60;99.90;;;;;;4961978;28;20085;-91
2022/07/10 08:40:39;;;;;;;7.40;6.75;;;29.20;99.90;;;;;;4962831;28;20093;-89
2022/07/10 08:43:06;;;;;;;7.13;6.47;;;28.90;99.90;;;;;;4962913;28;20395;-92
2022/07/10 08:45:33;;;;;;;9.18;6.90;;;29.00;99.90;;;;;;4962690;28;20034;-92
2022/07/10 08:48:06;;;;;;;8.48;7.55;;;29.10;99.90;;;;;;4978069;28;20141;-93
2022/07/10 18:56:56;;;;;;;5.28;2.10;;;23.90;99.90;;;;;;5375015;23;20416;-92
2022/07/10 18:59:23;;;;;;;3.90;2.00;;;23.90;99.90;;;;;;4921263;29;20059;-91
2022/07/10 19:01:50;;;;;;;6.13;2.45;;;23.90;99.90;;;;;;4922091;29;20492;-92
2022/07/10 19:04:16;;;;;;;5.22;1.98;;;23.80;99.90;;;;;;4921745;29;20043;-90
2022/07/10 19:06:45;;;;;;;6.68;1.98;;;23.80;99.90;;;;;;4914561;29;20028;-92
2022/07/10 19:09:15;;;;;;;5.75;1.88;;;23.80;99.90;;;;;;4908387;29;20033;-93
2022/07/10 19:12:01;;;;;;;4.65;1.73;;;23.70;99.90;;;;;;4925358;29;20054;-94
2022/07/10 19:14:28;;;;;;;6.50;1.90;;;23.80;99.90;;;;;;4934507;29;20028;-93
2022/07/10 19:16:54;;;;;;;3.75;1.83;;;23.70;99.90;;;;;;4908221;29;20119;-92
2022/07/10 19:19:20;;;;;;;6.60;2.58;;;23.70;99.90;;;;;;4914817;29;20024;-91
2022/07/10 19:21:47;;;;;;;5.20;1.90;;;23.70;99.90;;;;;;4934803;29;20078;-92
2022/07/10 19:24:13;;;;;;;4.10;1.67;;;23.80;99.90;;;;;;4918146;29;20050;-94
2022/07/10 19:26:40;;;;;;;6.28;2.10;;;23.70;99.90;;;;;;4923021;29;20036;-94
2022/07/10 19:29:09;;;;;;;6.40;1.88;;;23.70;99.90;;;;;;4904908;29;20112;-93
2022/07/10 19:31:45;;;;;;;4.82;1.80;;;23.80;99.90;;;;;;4904433;29;20072;-93
2022/07/10 19:34:18;;;;;;;4.50;1.83;;;23.70;99.90;;;;;;4918279;29;20028;-93
2022/07/10 19:36:44;;;;;;;6.25;2.20;;;23.60;99.90;;;;;;4917903;29;20063;-92
2022/07/10 19:39:11;;;;;;;6.35;2.42;;;23.60;99.90;;;;;;4902420;29;20024;-92
2022/07/10 19:41:38;;;;;;;4.72;2.47;;;23.60;99.90;;;;;;4917625;29;20032;-92
2022/07/10 19:44:04;;;;;;;5.47;2.00;;;23.60;99.90;;;;;;4902834;29;20047;-93
2022/07/10 19:46:31;;;;;;;6.20;1.85;;;23.50;99.90;;;;;;4902556;29;20032;-93
2022/07/10 19:48:58;;;;;;;7.50;3.00;;;23.50;99.90;;;;;;4902937;29;20062;-93
2022/07/10 19:51:24;;;;;;;6.85;2.10;;;23.50;99.90;;;;;;4918271;29;20044;-93
2022/07/10 19:53:51;;;;;;;7.70;2.33;;;23.40;99.90;;;;;;4902070;29;20035;-92
2022/07/10 19:56:18;;;;;;;4.15;2.35;;;23.40;99.90;;;;;;4903139;29;20052;-92
2022/07/10 19:58:46;;;;;;;7.43;2.05;;;23.40;99.90;;;;;;4902927;29;20039;-90
2022/07/10 20:01:13;;;;;;;8.13;2.45;;;23.40;99.90;;;;;;4918178;29;20031;-94
2022/07/10 20:03:39;;;;;;;7.47;2.38;;;23.30;99.90;;;;;;4902201;29;20032;-92
2022/07/10 20:06:11;;;;;;;6.43;2.00;;;23.30;99.90;;;;;;4918801;29;20032;-91
2022/07/10 20:08:44;;;;;;;3.65;2.10;;;23.20;99.90;;;;;;4903779;29;20036;-91
2022/07/10 20:11:17;;;;;;;5.15;1.90;;;23.30;99.90;;;;;;4926784;29;20032;-91
2022/07/10 20:13:44;;;;;;;5.97;2.40;;;23.30;99.90;;;;;;4921415;29;20044;-92
2022/07/10 20:16:10;;;;;;;8.02;2.85;;;23.30;99.90;;;;;;4902917;29;20473;-95
2022/07/10 20:18:37;;;;;;;5.95;2.13;;;23.30;99.90;;;;;;4917301;29;20401;-93
2022/07/10 20:21:04;;;;;;;7.95;2.53;;;23.30;99.90;;;;;;4901760;29;20028;-94
2022/07/10 20:23:33;;;;;;;5.60;1.92;;;23.20;99.90;;;;;;4917490;29;20032;-94
2022/07/10 20:26:00;;;;;;;8.00;2.45;;;23.20;99.90;;;;;;5072264;23;20508;-93
2022/07/10 20:28:26;;;;;;;5.72;2.55;;;23.20;99.90;;;;;;4927025;29;20027;-93
2022/07/10 20:31:00;;;;;;;8.00;2.40;;;23.20;99.90;;;;;;4923858;29;20031;-93
2022/07/10 20:33:27;;;;;;;3.60;2.45;;;23.20;99.90;;;;;;4926789;29;20031;-91
2022/07/10 20:38:42;;;;;;;7.60;2.63;;;23.20;99.90;;;;;;4939341;29;20118;-92
2022/07/10 20:41:09;;;;;;;6.35;2.10;;;23.10;99.90;;;;;;4923623;29;20028;-94
2022/07/10 20:43:45;;;;;;;11.50;2.53;;;23.10;99.90;;;;;;4923791;29;20168;-94
2022/07/10 20:46:11;;;;;;;6.95;2.50;;;23.10;99.90;;;;;;4927891;29;20031;-91
2022/07/10 20:48:38;;;;;;;10.77;2.17;;;23.10;99.90;;;;;;4925054;29;20110;-91
2022/07/10 20:51:05;;;;;;;5.63;2.35;;;23.10;99.90;;;;;;4923408;29;20252;-92
2022/07/10 20:53:35;;;;;;;5.80;2.10;;;23.10;99.90;;;;;;4922869;29;20039;-92
2022/07/10 20:56:02;;;;;;;5.78;2.20;;;23.10;99.90;;;;;;4923327;29;20112;-91
2022/07/10 20:58:28;;;;;;;9.50;2.08;;;23.10;99.90;;;;;;4936841;29;20616;-90
2022/07/10 21:00:55;;;;;;;7.60;2.05;;;23.10;99.90;;;;;;4923870;29;20046;-91
2022/07/10 21:03:21;;;;;;;6.15;2.40;;;23.10;99.90;;;;;;4923244;29;20031;-91
2022/07/10 21:05:48;;;;;;;4.78;1.90;;;23.00;99.90;;;;;;4923022;29;20066;-92
2022/07/10 21:08:15;;;;;;;6.13;2.30;;;23.00;99.90;;;;;;4923281;29;20050;-92
2022/07/10 21:10:41;;;;;;;6.97;2.30;;;23.00;99.90;;;;;;4923070;29;20031;-91
2022/07/10 21:13:16;;;;;;;13.10;3.70;;;23.00;99.90;;;;;;4923080;29;20035;-91
2022/07/10 21:15:44;;;;;;;9.25;2.50;;;23.00;99.90;;;;;;4900259;29;20036;-90
2022/07/10 21:18:11;;;;;;;6.63;2.65;;;22.90;99.90;;;;;;4905726;29;20040;-91
2022/07/10 21:20:39;;;;;;;7.28;2.53;;;22.90;99.90;;;;;;4887910;29;20092;-92
2022/07/10 21:23:07;;;;;;;9.57;2.90;;;22.80;99.90;;;;;;4917230;29;20047;-91
2022/07/10 21:25:34;;;;;;;7.47;2.92;;;22.80;99.90;;;;;;4894874;29;20462;-91
2022/07/10 21:28:01;;;;;;;8.18;2.67;;;22.80;99.90;;;;;;4884056;29;20032;-91
2022/07/10 21:30:28;;;;;;;4.40;2.22;;;22.80;99.90;;;;;;4867677;29;20087;-92
2022/07/10 21:32:54;;;;;;;6.15;2.30;;;22.70;99.90;;;;;;4866500;29;20092;-92
2022/07/10 21:35:22;;;;;;;10.32;2.60;;;22.70;99.90;;;;;;4866263;29;20053;-92
2022/07/10 21:37:48;;;;;;;4.65;2.72;;;22.70;99.90;;;;;;4866199;29;20028;-93
2022/07/10 21:40:15;;;;;;;13.13;2.88;;;22.70;99.90;;;;;;4866277;29;20029;-91
2022/07/10 21:42:41;;;;;;;4.88;2.30;;;22.60;99.90;;;;;;4866821;29;20032;-91
2022/07/10 21:45:08;;;;;;;20.45;4.55;;;22.60;99.90;;;;;;4866470;29;20150;-92
2022/07/10 21:47:39;;;;;;;10.02;2.53;;;22.50;99.90;;;;;;4907908;29;20036;-92
2022/07/10 21:50:10;;;;;;;5.20;2.72;;;22.50;99.90;;;;;;4935369;29;20054;-91
2022/07/10 21:52:38;;;;;;;6.70;2.30;;;22.50;99.90;;;;;;4922286;29;20056;-92
2022/07/10 21:55:07;;;;;;;6.35;2.40;;;22.40;99.90;;;;;;4930690;29;20024;-92
2022/07/10 21:57:36;;;;;;;5.65;2.88;;;22.40;99.90;;;;;;4938115;29;20059;-90
2022/07/10 22:00:07;;;;;;;9.65;2.08;;;22.40;99.90;;;;;;4932348;29;20072;-92
2022/07/10 22:02:54;;;;;;;5.32;2.05;;;22.50;99.90;;;;;;4933894;29;20051;-92
2022/07/10 22:05:25;;;;;;;4.93;2.58;;;22.50;99.90;;;;;;4884483;29;20044;-91
2022/07/10 22:08:01;;;;;;;10.45;2.00;;;22.50;99.90;;;;;;4948900;29;20032;-92
2022/07/10 22:10:29;;;;;;;9.43;2.33;;;22.40;99.90;;;;;;4911079;29;20051;-78
2022/07/10 22:12:55;;;;;;;9.15;1.98;;;22.50;99.90;;;;;;4901190;29;20637;-72
2022/07/10 22:15:23;;;;;;;7.38;2.20;;;22.40;99.90;;;;;;4897201;29;20394;-72
2022/07/10 22:17:49;;;;;;;7.30;2.47;;;22.50;99.90;;;;;;4890989;29;20036;-73
2022/07/10 22:20:15;;;;;;;12.32;2.75;;;22.50;99.90;;;;;;4896268;29;20069;-72
2022/07/10 22:22:43;;;;;;;8.25;2.22;;;22.50;99.90;;;;;;4897336;29;20043;-72
2022/07/10 22:25:17;;;;;;;8.32;2.15;;;22.50;99.90;;;;;;4900223;29;20395;-72
2022/07/10 22:27:45;;;;;;;6.10;2.60;;;22.40;99.90;;;;;;4913854;29;20054;-72
2022/07/10 22:30:12;;;;;;;9.13;2.47;;;22.50;99.90;;;;;;4900058;29;20058;-72
2022/07/10 22:32:40;;;;;;;6.53;2.15;;;22.50;99.90;;;;;;4915816;29;20043;-72
2022/07/10 22:35:06;;;;;;;7.13;2.30;;;22.50;99.90;;;;;;4916909;29;20080;-72
2022/07/10 22:37:33;;;;;;;10.23;2.50;;;22.40;99.90;;;;;;4917316;29;20566;-72
2022/07/10 22:39:59;;;;;;;7.18;2.67;;;22.50;99.90;;;;;;4917342;29;20076;-72
2022/07/10 22:42:26;;;;;;;9.05;2.80;;;22.40;99.90;;;;;;4917154;29;20079;-72
2022/07/10 22:44:52;;;;;;;10.60;2.40;;;22.50;99.90;;;;;;4917274;29;20028;-72
2022/07/10 22:47:18;;;;;;;8.40;2.55;;;22.40;99.90;;;;;;4917153;29;20032;-72
2022/07/10 22:49:44;;;;;;;8.48;2.05;;;22.40;99.90;;;;;;4909405;29;20445;-72
2022/07/10 22:52:11;;;;;;;7.45;2.45;;;22.40;99.90;;;;;;4917123;29;20044;-72
2022/07/10 22:54:37;;;;;;;8.90;2.40;;;22.30;99.90;;;;;;4917036;29;20024;-72
2022/07/10 22:57:04;;;;;;;6.75;2.70;;;22.30;99.90;;;;;;4916845;29;20135;-72
2022/07/10 22:59:30;;;;;;;5.63;2.30;;;22.20;99.90;;;;;;4916911;29;20031;-72
2022/07/10 23:01:56;;;;;;;10.13;2.20;;;22.20;99.90;;;;;;4917012;29;20133;-72
2022/07/10 23:04:23;;;;;;;6.22;2.35;;;22.10;99.90;;;;;;4916858;29;20525;-72
2022/07/10 23:06:50;;;;;;;7.40;2.72;;;22.10;99.90;;;;;;4908423;29;20038;-72
2022/07/10 23:09:16;;;;;;;6.43;2.25;;;22.00;99.90;;;;;;4937688;29;20495;-72